Time;durP1;ratioP1;P1;durP2;ratioP2;P2;SDS_P1;SDS_P2;PMS_P1;PMS_P2;Temp;Humidity;BMP_temperature;BMP_pressure;BME280_temperature;BME280_humidity;BME280_pressure;Samples;Min_cycle;Max_cycle;Signal;HPM_P1;HPM_P2
2024/04/19 00:01:10;;;;;;;5.43;3.65;;;8.70;71.10;;;;;;5450536;25;110400;-52
2024/04/19 00:03:35;;;;;;;7.60;4.47;;;8.50;71.70;;;;;;5458681;25;112344;-52
2024/04/19 00:06:02;;;;;;;4.97;3.78;;;8.60;71.10;;;;;;5471736;25;111515;-49
2024/04/19 00:08:28;;;;;;;5.13;4.35;;;8.60;70.60;;;;;;5464349;25;110656;-51
2024/04/19 00:10:55;;;;;;;4.68;3.75;;;8.40;70.70;;;;;;5458612;25;113280;-49
2024/04/19 00:13:21;;;;;;;5.18;3.60;;;8.50;70.90;;;;;;5465875;25;112223;-50
2024/04/19 00:15:47;;;;;;;4.95;3.83;;;8.50;70.90;;;;;;5465127;25;111515;-53
2024/04/19 00:18:12;;;;;;;5.53;3.50;;;8.40;71.20;;;;;;5470349;25;110451;-50
2024/04/19 00:20:41;;;;;;;4.25;3.60;;;8.30;71.40;;;;;;5463197;25;110754;-51
2024/04/19 00:23:07;;;;;;;3.28;2.97;;;8.40;71.20;;;;;;5470099;25;111689;-53
2024/04/19 00:25:36;;;;;;;4.28;3.53;;;8.30;70.40;;;;;;5472001;25;110657;-51
2024/04/19 00:28:02;;;;;;;5.50;3.63;;;8.30;70.60;;;;;;5453211;25;110830;-50
2024/04/19 00:30:28;;;;;;;6.38;4.05;;;8.20;71.80;;;;;;5459107;25;110741;-49
2024/04/19 00:32:54;;;;;;;6.50;3.70;;;8.00;72.80;;;;;;5470891;25;111086;-52
2024/04/19 00:35:20;;;;;;;4.30;3.90;;;8.00;73.30;;;;;;5461465;25;110426;-50
2024/04/19 00:37:46;;;;;;;4.90;3.80;;;7.80;73.40;;;;;;5455289;25;110503;-50
2024/04/19 00:40:11;;;;;;;8.52;4.43;;;7.80;73.50;;;;;;5474266;25;110710;-49
2024/04/19 00:42:37;;;;;;;5.47;4.72;;;7.90;73.40;;;;;;5472836;25;113385;-52
2024/04/19 00:45:24;;;;;;;4.70;3.90;;;8.00;73.50;;;;;;5454180;25;112028;-53
2024/04/19 00:47:50;;;;;;;4.57;3.40;;;8.00;73.40;;;;;;5455231;25;110830;-50
2024/04/19 00:50:16;;;;;;;6.03;3.97;;;8.00;73.30;;;;;;5473222;25;110779;-50
2024/04/19 00:52:43;;;;;;;7.20;3.83;;;8.00;73.20;;;;;;5472646;25;112252;-49
2024/04/19 00:55:08;;;;;;;4.40;4.00;;;7.90;73.60;;;;;;5455857;25;111599;-50
2024/04/19 00:57:34;;;;;;;4.47;4.07;;;7.90;73.60;;;;;;5469442;25;111448;-49
2024/04/19 01:00:01;;;;;;;4.47;3.80;;;7.60;73.80;;;;;;5453429;25;110688;-49
2024/04/19 01:02:27;;;;;;;5.80;4.25;;;7.30;75.00;;;;;;5474113;25;112531;-49
2024/04/19 01:04:53;;;;;;;4.85;4.22;;;7.30;75.30;;;;;;5466302;25;110655;-51
2024/04/19 01:07:18;;;;;;;3.97;3.67;;;7.30;75.50;;;;;;5449711;25;110607;-50
2024/04/19 01:09:44;;;;;;;4.38;3.95;;;7.30;75.50;;;;;;5465657;25;110489;-50
2024/04/19 01:12:10;;;;;;;4.70;4.30;;;7.20;75.50;;;;;;5444589;25;111013;-51
2024/04/19 01:14:35;;;;;;;5.45;3.92;;;7.10;76.00;;;;;;5459937;25;111809;-49
2024/04/19 01:17:01;;;;;;;4.85;4.00;;;7.20;76.10;;;;;;5460846;25;111112;-49
2024/04/19 01:19:27;;;;;;;4.15;3.78;;;7.10;76.00;;;;;;5462757;25;110738;-50
2024/04/19 01:21:53;;;;;;;5.45;3.78;;;7.10;76.10;;;;;;5472777;25;111145;-49
2024/04/19 01:24:31;;;;;;;3.80;3.50;;;6.90;76.30;;;;;;5472499;25;110806;-52
2024/04/19 01:26:56;;;;;;;5.03;4.47;;;6.90;76.20;;;;;;5462804;25;110434;-50
2024/04/19 01:29:22;;;;;;;4.72;4.05;;;6.60;77.20;;;;;;5449051;25;110604;-50
2024/04/19 01:31:48;;;;;;;4.25;3.85;;;6.50;78.10;;;;;;5459526;25;114634;-49
2024/04/19 01:34:14;;;;;;;3.97;3.58;;;6.60;77.60;;;;;;5451137;25;110439;-49
2024/04/19 01:36:40;;;;;;;4.47;3.65;;;6.80;77.10;;;;;;5452356;25;110793;-50
2024/04/19 01:39:05;;;;;;;4.32;3.42;;;6.60;77.60;;;;;;5456538;25;110679;-55
2024/04/19 01:41:31;;;;;;;4.07;3.30;;;6.70;76.50;;;;;;5469399;25;111486;-49
2024/04/19 01:43:58;;;;;;;3.88;3.03;;;6.80;75.80;;;;;;5465747;25;110435;-50
2024/04/19 01:46:24;;;;;;;4.03;3.42;;;6.90;75.70;;;;;;5450917;25;110626;-49
2024/04/19 01:48:49;;;;;;;2.90;2.70;;;6.90;76.00;;;;;;5469287;25;110824;-50
2024/04/19 01:51:15;;;;;;;3.47;3.08;;;7.00;75.30;;;;;;5459177;25;111217;-49
2024/04/19 01:53:41;;;;;;;4.63;3.30;;;7.00;75.40;;;;;;5472210;25;111060;-49
2024/04/19 01:56:06;;;;;;;4.60;3.75;;;7.00;75.70;;;;;;5459504;25;110469;-50
2024/04/19 01:58:32;;;;;;;3.33;3.03;;;7.10;75.50;;;;;;5451997;25;110692;-51
2024/04/19 02:00:57;;;;;;;4.03;2.67;;;7.20;74.90;;;;;;5463435;25;111015;-49
2024/04/19 02:03:23;;;;;;;6.88;3.05;;;7.20;75.30;;;;;;5472008;25;112435;-50
2024/04/19 02:05:49;;;;;;;3.80;3.10;;;7.10;75.10;;;;;;5473003;25;110499;-49
2024/04/19 02:08:14;;;;;;;3.40;3.10;;;7.10;75.10;;;;;;5464112;25;110645;-54
2024/04/19 02:10:40;;;;;;;4.03;2.90;;;7.20;75.00;;;;;;5472780;25;112390;-53
2024/04/19 02:13:05;;;;;;;4.47;3.05;;;7.30;75.20;;;;;;5465583;25;111594;-50
2024/04/19 02:15:31;;;;;;;5.70;4.15;;;6.90;75.40;;;;;;5467107;25;110605;-52
2024/04/19 02:17:57;;;;;;;6.03;5.07;;;6.70;76.30;;;;;;5461867;25;110795;-51
2024/04/19 02:20:22;;;;;;;7.43;4.93;;;6.40;77.00;;;;;;5471730;25;111504;-49
2024/04/19 02:22:48;;;;;;;6.80;6.13;;;6.50;76.80;;;;;;5459941;25;111570;-50
2024/04/19 02:25:14;;;;;;;7.45;5.68;;;6.50;77.00;;;;;;5469930;25;110509;-49
2024/04/19 02:33:08;;;;;;;8.27;4.47;;;6.70;76.70;;;;;;5463574;25;110552;-51
2024/04/19 02:35:33;;;;;;;5.03;4.53;;;6.90;76.10;;;;;;5476311;25;110774;-51
2024/04/19 02:37:59;;;;;;;5.97;4.60;;;6.80;75.80;;;;;;5476490;25;110506;-51
2024/04/19 02:40:25;;;;;;;4.93;4.30;;;6.70;76.80;;;;;;5471300;25;111136;-50
2024/04/19 02:42:50;;;;;;;5.55;4.00;;;6.80;76.90;;;;;;5473796;25;111642;-51
2024/04/19 02:45:16;;;;;;;6.63;3.92;;;6.80;77.10;;;;;;5453876;25;110488;-50
2024/04/19 02:47:42;;;;;;;3.83;3.33;;;6.80;77.50;;;;;;5458261;25;110559;-52
2024/04/19 02:50:07;;;;;;;6.50;3.50;;;6.80;77.70;;;;;;5472204;25;112389;-50
2024/04/19 02:52:33;;;;;;;4.43;3.95;;;6.80;77.60;;;;;;5474128;25;110661;-56
2024/04/19 02:54:59;;;;;;;4.75;3.50;;;6.80;77.70;;;;;;5467353;25;111174;-51
2024/04/19 02:57:24;;;;;;;4.57;4.10;;;6.60;78.20;;;;;;5476006;25;111461;-51
2024/04/19 02:59:50;;;;;;;5.93;3.65;;;6.60;78.90;;;;;;5473972;25;111138;-50
2024/04/19 03:02:16;;;;;;;3.60;3.30;;;6.80;78.30;;;;;;5466283;25;111341;-51
2024/04/19 03:04:41;;;;;;;4.40;3.83;;;6.80;78.00;;;;;;5469811;25;110873;-51
2024/04/19 03:07:07;;;;;;;3.65;3.35;;;6.70;77.80;;;;;;5470103;25;110655;-50
2024/04/19 03:09:33;;;;;;;3.85;3.45;;;6.60;77.50;;;;;;5471709;25;112554;-50
2024/04/19 03:11:58;;;;;;;4.70;3.90;;;6.50;78.20;;;;;;5467425;25;111620;-50
2024/04/19 03:14:26;;;;;;;3.97;3.60;;;6.60;77.30;;;;;;5474554;25;110687;-50
2024/04/19 03:16:52;;;;;;;6.25;3.92;;;6.70;77.50;;;;;;5467863;25;112359;-50
2024/04/19 03:19:17;;;;;;;4.68;3.42;;;6.80;77.40;;;;;;5457462;25;111632;-50
2024/04/19 03:21:43;;;;;;;4.22;3.80;;;6.60;76.80;;;;;;5475335;25;111396;-50
2024/04/19 03:24:09;;;;;;;3.50;3.20;;;6.40;77.70;;;;;;5475318;25;111168;-49
2024/04/19 03:26:34;;;;;;;3.70;3.33;;;6.30;77.10;;;;;;5468273;25;110475;-50
2024/04/19 03:29:00;;;;;;;3.78;3.47;;;6.00;78.30;;;;;;5464947;25;111240;-50
2024/04/19 03:31:26;;;;;;;5.30;4.28;;;6.20;78.20;;;;;;5462259;25;110879;-50
2024/04/19 03:33:51;;;;;;;4.70;3.80;;;6.30;77.90;;;;;;5451549;25;111501;-50
2024/04/19 03:36:17;;;;;;;4.15;3.75;;;6.30;77.70;;;;;;5464973;25;110602;-50
2024/04/19 03:38:45;;;;;;;5.22;3.60;;;6.30;78.20;;;;;;5461071;25;112586;-50
2024/04/19 03:41:11;;;;;;;5.63;4.10;;;6.50;78.20;;;;;;5474894;25;111995;-49
2024/04/19 03:43:41;;;;;;;4.15;3.20;;;6.50;78.30;;;;;;5470714;25;110721;-50
2024/04/19 03:46:07;;;;;;;3.83;3.53;;;6.50;77.50;;;;;;5454158;25;110538;-50
2024/04/19 03:48:33;;;;;;;4.18;3.70;;;5.90;78.80;;;;;;5457789;25;112481;-50
2024/04/19 03:50:59;;;;;;;3.90;3.42;;;5.70;79.40;;;;;;5461694;25;110981;-50
2024/04/19 03:53:24;;;;;;;5.13;3.55;;;5.80;79.30;;;;;;5461346;25;110465;-50
2024/04/19 03:55:50;;;;;;;4.88;3.75;;;5.80;79.20;;;;;;5455450;25;110791;-51
2024/04/19 03:58:16;;;;;;;3.95;3.55;;;5.90;78.90;;;;;;5453406;25;111265;-51
2024/04/19 04:00:41;;;;;;;4.72;3.30;;;6.00;78.90;;;;;;5445673;25;111524;-51
2024/04/19 04:03:07;;;;;;;6.68;3.47;;;6.20;78.40;;;;;;5475351;25;110675;-52
2024/04/19 04:05:34;;;;;;;4.18;3.17;;;6.20;78.40;;;;;;5457063;25;110474;-51
2024/04/19 04:07:59;;;;;;;3.92;3.50;;;6.30;77.90;;;;;;5474944;25;111000;-50
2024/04/19 04:10:25;;;;;;;6.65;3.45;;;6.30;77.80;;;;;;5466506;25;111181;-50
2024/04/19 04:12:51;;;;;;;4.68;3.13;;;6.30;77.70;;;;;;5464983;25;110440;-51
2024/04/19 04:15:17;;;;;;;4.28;3.33;;;6.30;78.10;;;;;;5474114;25;111155;-50
2024/04/19 04:17:42;;;;;;;5.03;3.28;;;6.30;77.80;;;;;;5472019;25;111299;-51
2024/04/19 04:20:08;;;;;;;4.43;3.70;;;6.30;78.10;;;;;;5467344;25;110639;-51
2024/04/19 04:22:34;;;;;;;6.03;3.50;;;6.30;77.60;;;;;;5459634;25;111009;-51
2024/04/19 04:24:59;;;;;;;4.18;3.60;;;6.20;78.10;;;;;;5465510;25;110613;-50
2024/04/19 04:27:25;;;;;;;5.85;3.50;;;6.20;78.60;;;;;;5471994;25;111017;-50
2024/04/19 04:29:50;;;;;;;7.57;3.45;;;6.20;78.40;;;;;;5456391;25;110391;-50
2024/04/19 04:32:16;;;;;;;6.65;3.38;;;6.30;78.60;;;;;;5452257;25;110563;-50
2024/04/19 04:34:43;;;;;;;6.05;3.63;;;6.30;78.50;;;;;;5463426;25;110658;-50
2024/04/19 04:37:09;;;;;;;5.47;3.20;;;6.40;78.70;;;;;;5454094;25;112338;-50
2024/04/19 04:39:35;;;;;;;3.10;2.80;;;6.50;78.70;;;;;;5472981;25;110622;-50
2024/04/19 04:42:01;;;;;;;5.15;3.00;;;6.60;78.00;;;;;;5474763;25;110535;-53
2024/04/19 04:44:32;;;;;;;4.97;2.95;;;6.50;77.50;;;;;;5475876;25;110598;-52
2024/04/19 04:47:01;;;;;;;3.50;3.15;;;6.60;77.60;;;;;;5465968;25;111193;-50
2024/04/19 04:49:27;;;;;;;3.75;3.17;;;6.70;77.00;;;;;;5472795;25;110666;-50
2024/04/19 04:51:52;;;;;;;5.50;3.65;;;6.60;77.20;;;;;;5455004;25;110604;-51
2024/04/19 04:54:18;;;;;;;5.70;2.90;;;6.60;77.10;;;;;;5473049;25;110556;-51
2024/04/19 04:56:44;;;;;;;5.78;2.83;;;6.60;76.50;;;;;;5469306;25;111556;-51
2024/04/19 04:59:09;;;;;;;5.18;2.80;;;6.60;76.30;;;;;;5469215;25;111561;-51
2024/04/19 05:01:35;;;;;;;3.90;3.35;;;6.80;76.30;;;;;;5457159;25;110612;-50
2024/04/19 05:04:00;;;;;;;6.68;3.15;;;6.70;76.80;;;;;;5450314;25;110683;-50
2024/04/19 05:06:26;;;;;;;5.68;2.83;;;6.60;77.90;;;;;;5453816;25;112382;-50
2024/04/19 05:08:52;;;;;;;5.22;3.15;;;6.60;78.40;;;;;;5461337;25;111847;-50
2024/04/19 05:11:17;;;;;;;5.53;2.85;;;6.60;78.20;;;;;;5467334;25;110393;-49
2024/04/19 05:13:43;;;;;;;10.45;3.35;;;6.70;78.70;;;;;;5465914;25;110471;-50
2024/04/19 05:16:09;;;;;;;3.28;2.95;;;6.80;78.60;;;;;;5460205;25;111422;-51
2024/04/19 05:18:34;;;;;;;9.48;2.88;;;6.90;78.20;;;;;;5461537;25;111679;-50
2024/04/19 05:21:00;;;;;;;5.68;2.33;;;7.10;77.80;;;;;;5464871;25;112482;-51
2024/04/19 05:23:26;;;;;;;3.33;1.88;;;7.20;76.80;;;;;;5469311;25;110596;-49
2024/04/19 05:30:58;;;;;;;8.65;5.88;;;7.50;74.70;;;;;;5386689;26;110528;-50
2024/04/19 05:33:28;;;;;;;3.35;2.28;;;7.60;73.80;;;;;;5383568;26;110804;-51
2024/04/19 05:35:54;;;;;;;4.93;2.30;;;7.70;73.30;;;;;;5370451;26;110864;-49
2024/04/19 05:38:20;;;;;;;6.95;2.28;;;7.80;73.60;;;;;;5371774;26;111666;-49
2024/04/19 05:40:46;;;;;;;2.78;1.70;;;7.80;73.10;;;;;;5382848;26;111527;-50
2024/04/19 05:43:13;;;;;;;3.22;1.95;;;8.00;72.20;;;;;;5384243;26;110435;-49
2024/04/19 05:45:38;;;;;;;4.97;1.90;;;8.10;71.60;;;;;;5382275;26;110641;-49
2024/04/19 05:48:04;;;;;;;2.78;2.00;;;8.20;71.10;;;;;;5354043;26;111089;-49
2024/04/19 05:50:31;;;;;;;3.58;1.90;;;8.30;71.30;;;;;;5347165;26;111998;-49
2024/04/19 05:52:57;;;;;;;3.45;2.10;;;8.30;71.80;;;;;;5364543;26;111523;-49
2024/04/19 05:55:23;;;;;;;5.07;2.30;;;8.40;71.00;;;;;;5371482;26;110891;-49
2024/04/19 05:57:48;;;;;;;5.38;2.30;;;8.60;70.80;;;;;;5369883;26;111028;-50
2024/04/19 06:00:14;;;;;;;2.75;2.28;;;8.60;70.40;;;;;;5348806;26;111171;-50
2024/04/19 06:02:40;;;;;;;4.22;2.45;;;8.80;70.70;;;;;;5355962;26;110444;-50
2024/04/19 06:05:06;;;;;;;8.60;3.00;;;8.80;70.20;;;;;;5354677;26;111008;-50
2024/04/19 06:07:32;;;;;;;4.75;2.55;;;9.00;69.90;;;;;;5362944;26;111094;-50
2024/04/19 06:09:57;;;;;;;5.43;2.53;;;9.10;69.50;;;;;;5371948;26;112424;-52
2024/04/19 06:12:23;;;;;;;3.83;2.60;;;9.10;68.40;;;;;;5350960;26;110474;-49
2024/04/19 06:14:49;;;;;;;5.57;2.45;;;9.20;68.40;;;;;;5358487;26;111264;-49
2024/04/19 06:17:15;;;;;;;8.48;2.75;;;9.40;68.40;;;;;;5355865;26;111262;-50
2024/04/19 06:19:41;;;;;;;2.33;1.95;;;9.60;68.70;;;;;;5357335;26;111478;-49
2024/04/19 06:22:06;;;;;;;4.45;2.17;;;9.80;68.10;;;;;;5365578;26;110422;-55
2024/04/19 06:24:32;;;;;;;3.70;2.30;;;9.90;68.50;;;;;;5368696;26;110551;-49
2024/04/19 06:26:58;;;;;;;6.32;2.33;;;10.00;68.80;;;;;;5357246;26;112456;-49
2024/04/19 06:29:23;;;;;;;3.35;2.25;;;10.10;68.20;;;;;;5346968;26;110647;-49
2024/04/19 06:31:49;;;;;;;5.10;2.20;;;10.30;67.30;;;;;;5349523;26;110747;-49
2024/04/19 06:34:15;;;;;;;5.38;2.00;;;10.60;66.60;;;;;;5353113;26;110892;-50
2024/04/19 06:36:41;;;;;;;4.53;2.40;;;10.60;67.10;;;;;;5356665;26;112532;-49
2024/04/19 06:39:07;;;;;;;6.80;2.60;;;10.80;67.20;;;;;;5341118;26;111549;-49
2024/04/19 06:41:35;;;;;;;3.10;1.60;;;11.10;66.00;;;;;;5337801;26;110836;-49
2024/04/19 06:44:00;;;;;;;3.60;1.88;;;11.40;63.70;;;;;;5330127;26;110872;-49
2024/04/19 06:46:26;;;;;;;4.25;1.90;;;11.60;62.50;;;;;;5347871;26;112528;-49
2024/04/19 06:48:53;;;;;;;2.80;1.60;;;11.80;61.70;;;;;;5337254;26;110761;-49
2024/04/19 06:51:19;;;;;;;4.82;2.00;;;11.90;60.50;;;;;;5344258;26;110724;-49
2024/04/19 06:53:44;;;;;;;2.13;1.60;;;12.10;60.90;;;;;;5342421;26;110527;-49
2024/04/19 06:56:10;;;;;;;4.30;1.40;;;12.20;59.40;;;;;;5341913;26;111032;-52
2024/04/19 06:58:36;;;;;;;3.95;1.92;;;12.30;58.30;;;;;;5337708;26;110896;-49
2024/04/19 07:01:08;;;;;;;5.80;1.90;;;12.30;57.50;;;;;;5339288;26;110745;-49
2024/04/19 07:03:34;;;;;;;;;;;12.40;57.40;;;;;;5336284;26;110678;-49
2024/04/19 07:06:14;;;;;;;3.22;1.23;;;12.60;56.50;;;;;;5339609;26;111530;-48
2024/04/19 07:08:40;;;;;;;2.50;1.40;;;12.80;53.30;;;;;;5334126;26;110798;-52
2024/04/19 07:11:06;;;;;;;5.15;1.45;;;12.80;53.50;;;;;;5335719;26;110434;-51
2024/04/19 07:13:33;;;;;;;3.22;1.52;;;13.00;54.60;;;;;;5335339;26;110838;-51
2024/04/19 07:15:59;;;;;;;4.60;1.83;;;13.30;54.80;;;;;;5340486;26;110861;-51
2024/04/19 07:18:25;;;;;;;3.63;2.25;;;13.60;54.70;;;;;;5340682;26;110880;-50
2024/04/19 07:20:52;;;;;;;3.38;1.45;;;13.80;53.20;;;;;;5343009;26;110587;-53
2024/04/19 07:23:20;;;;;;;2.70;1.90;;;13.70;52.60;;;;;;5338569;26;112137;-52
2024/04/19 07:25:46;;;;;;;3.00;2.13;;;13.80;53.20;;;;;;5336632;26;112407;-51
2024/04/19 07:28:11;;;;;;;3.00;1.60;;;13.70;53.10;;;;;;5336602;26;110902;-51
2024/04/19 07:30:37;;;;;;;2.35;1.40;;;13.40;52.70;;;;;;5332348;26;111229;-50
2024/04/19 07:33:03;;;;;;;1.85;1.40;;;13.40;53.40;;;;;;5337728;26;111007;-51
2024/04/19 07:35:30;;;;;;;1.90;1.40;;;13.50;54.40;;;;;;5330818;26;114063;-51
2024/04/19 07:37:56;;;;;;;2.03;1.38;;;13.60;52.20;;;;;;5336202;26;110759;-50
2024/04/19 07:40:22;;;;;;;3.10;1.30;;;13.60;53.10;;;;;;5337147;26;110689;-50
2024/04/19 07:42:48;;;;;;;1.50;1.27;;;13.80;53.50;;;;;;5335894;26;110637;-51
2024/04/19 07:45:22;;;;;;;1.17;1.08;;;14.10;52.60;;;;;;5336157;26;111037;-50
2024/04/19 07:47:51;;;;;;;3.28;1.45;;;14.00;52.70;;;;;;5336582;26;110926;-50
2024/04/19 07:50:17;;;;;;;2.85;1.48;;;13.90;51.80;;;;;;5348751;26;110932;-50
2024/04/19 07:52:44;;;;;;;1.30;1.08;;;13.90;51.90;;;;;;5353163;26;110499;-50
2024/04/19 07:55:09;;;;;;;8.30;1.20;;;13.90;50.40;;;;;;5351274;26;111208;-49
2024/04/19 07:57:35;;;;;;;1.50;1.02;;;13.90;49.20;;;;;;5357428;26;112219;-53
2024/04/19 08:00:01;;;;;;;1.33;0.90;;;14.30;48.50;;;;;;5348649;26;110849;-50
2024/04/19 08:02:27;;;;;;;4.82;1.15;;;14.20;47.00;;;;;;5338326;26;110593;-51
2024/04/19 08:04:53;;;;;;;1.33;0.88;;;14.60;47.30;;;;;;5345280;26;111975;-51
2024/04/19 08:07:23;;;;;;;2.92;1.05;;;14.80;46.50;;;;;;5340994;26;110502;-51
2024/04/19 08:09:52;;;;;;;2.20;1.20;;;14.80;46.40;;;;;;5332182;26;110668;-50
2024/04/19 08:12:17;;;;;;;1.13;1.00;;;14.60;46.90;;;;;;5348351;26;110681;-50
2024/04/19 08:14:43;;;;;;;2.80;1.00;;;14.70;47.80;;;;;;5347495;26;111053;-52
2024/04/19 08:17:09;;;;;;;2.75;1.33;;;14.80;46.80;;;;;;5330715;26;111835;-51
2024/04/19 08:19:34;;;;;;;2.28;1.20;;;14.90;46.00;;;;;;5346885;26;110921;-53
2024/04/19 08:22:00;;;;;;;1.00;0.90;;;14.70;45.80;;;;;;5342295;26;110429;-50
2024/04/19 08:24:27;;;;;;;1.17;1.00;;;14.90;46.10;;;;;;5339675;26;112275;-51
2024/04/19 08:26:53;;;;;;;1.52;1.00;;;14.80;45.10;;;;;;5352105;26;111556;-54
2024/04/19 08:29:18;;;;;;;1.17;1.08;;;15.00;44.80;;;;;;5338486;26;110795;-50
2024/04/19 08:31:44;;;;;;;1.10;1.00;;;15.00;45.50;;;;;;5351856;26;110633;-51
2024/04/19 08:34:11;;;;;;;1.80;1.30;;;14.90;45.10;;;;;;5348961;26;111070;-50
2024/04/19 08:36:36;;;;;;;2.10;1.30;;;15.10;44.40;;;;;;5343488;26;110589;-50
2024/04/19 08:39:02;;;;;;;1.15;0.95;;;15.50;44.70;;;;;;5304570;26;110993;-53
2024/04/19 08:41:30;;;;;;;1.10;1.00;;;15.00;44.60;;;;;;5329563;26;111068;-50
2024/04/19 08:43:59;;;;;;;0.90;0.77;;;15.10;44.50;;;;;;5332012;26;111098;-50
2024/04/19 08:46:27;;;;;;;1.25;0.80;;;15.30;45.20;;;;;;5312590;26;111841;-50
2024/04/19 08:48:55;;;;;;;0.80;0.80;;;15.70;43.00;;;;;;5336575;26;112827;-50
2024/04/19 08:51:21;;;;;;;1.48;1.10;;;15.80;41.70;;;;;;5351086;26;110641;-50
2024/04/19 08:53:49;;;;;;;0.90;0.90;;;15.70;42.20;;;;;;5346600;26;112535;-50
2024/04/19 08:56:16;;;;;;;2.65;1.40;;;15.90;42.70;;;;;;5335792;26;110529;-50
2024/04/19 08:58:42;;;;;;;3.58;1.23;;;15.90;42.50;;;;;;5335855;26;110667;-50
2024/04/19 09:01:07;;;;;;;1.90;1.27;;;15.80;42.20;;;;;;5331744;26;112063;-52
2024/04/19 09:03:33;;;;;;;2.85;0.98;;;15.70;43.50;;;;;;5333008;26;111108;-50
2024/04/19 09:06:00;;;;;;;1.33;1.20;;;15.70;43.90;;;;;;5336501;26;111204;-50
2024/04/19 09:08:25;;;;;;;1.30;1.20;;;15.40;43.60;;;;;;5334828;26;110972;-50
2024/04/19 09:10:51;;;;;;;2.42;1.10;;;15.90;43.20;;;;;;5351370;26;110543;-50
2024/04/19 09:13:18;;;;;;;1.15;0.90;;;15.90;42.90;;;;;;5336561;26;111592;-50
2024/04/19 09:15:47;;;;;;;2.03;1.00;;;16.10;40.40;;;;;;5346686;26;110370;-52
2024/04/19 09:18:13;;;;;;;0.90;0.80;;;16.20;42.40;;;;;;5343825;26;111057;-51
2024/04/19 09:20:44;;;;;;;1.13;1.00;;;16.20;41.50;;;;;;5331033;26;110565;-51
2024/04/19 09:23:10;;;;;;;0.90;0.90;;;16.20;41.30;;;;;;5331581;26;112397;-50
2024/04/19 09:25:38;;;;;;;1.48;1.10;;;16.30;39.50;;;;;;5365542;26;110724;-50
2024/04/19 09:28:05;;;;;;;2.53;1.48;;;16.20;39.60;;;;;;5343472;26;111093;-50
2024/04/19 09:30:31;;;;;;;2.60;1.00;;;16.40;41.10;;;;;;5364800;26;111088;-50
2024/04/19 09:32:57;;;;;;;1.17;0.80;;;16.40;39.20;;;;;;5347914;26;111319;-51
2024/04/19 09:35:30;;;;;;;3.85;1.13;;;16.50;39.00;;;;;;5359767;26;110737;-50
2024/04/19 09:37:58;;;;;;;2.30;1.40;;;16.90;39.30;;;;;;5347714;26;113293;-50
2024/04/19 09:40:26;;;;;;;1.10;1.10;;;17.20;38.50;;;;;;5359387;26;110639;-52
2024/04/19 09:42:54;;;;;;;1.38;1.15;;;16.60;38.10;;;;;;5348764;26;111066;-50
2024/04/19 09:45:21;;;;;;;2.38;1.48;;;16.90;39.20;;;;;;5355562;26;110515;-52
2024/04/19 09:47:54;;;;;;;1.23;1.08;;;17.40;39.20;;;;;;5365473;26;110850;-51
2024/04/19 09:50:28;;;;;;;2.17;1.20;;;17.70;39.00;;;;;;5365359;26;110739;-50
2024/04/19 09:53:02;;;;;;;1.70;1.60;;;18.00;38.30;;;;;;5350355;26;111102;-51
2024/04/19 09:55:57;;;;;;;1.77;1.50;;;17.90;37.60;;;;;;5355481;26;113582;-51
2024/04/19 09:58:23;;;;;;;1.45;1.30;;;17.10;38.80;;;;;;5344606;26;110415;-52
2024/04/19 10:00:49;;;;;;;1.27;1.17;;;17.00;39.40;;;;;;5340419;26;110972;-51
2024/04/19 10:03:18;;;;;;;1.35;1.08;;;17.20;39.20;;;;;;5338746;26;112403;-53
2024/04/19 10:05:45;;;;;;;1.60;1.35;;;17.60;39.10;;;;;;5359924;26;111546;-50
2024/04/19 10:08:12;;;;;;;1.70;1.10;;;17.40;39.30;;;;;;5335429;26;110447;-50
2024/04/19 10:10:38;;;;;;;2.40;1.55;;;17.80;38.80;;;;;;5345326;26;110915;-52
2024/04/19 10:13:04;;;;;;;1.67;1.20;;;17.80;37.80;;;;;;5336057;26;112707;-53
2024/04/19 10:15:30;;;;;;;2.95;1.95;;;17.90;38.40;;;;;;5336378;26;111749;-50
2024/04/19 10:17:55;;;;;;;2.63;1.63;;;17.20;38.70;;;;;;5338315;26;111688;-50
2024/04/19 10:20:22;;;;;;;1.60;1.20;;;17.10;38.30;;;;;;5341957;26;110740;-50
2024/04/19 10:22:52;;;;;;;5.18;1.58;;;17.90;38.30;;;;;;5348350;26;112430;-50
2024/04/19 10:25:24;;;;;;;2.85;1.38;;;17.90;36.90;;;;;;5343575;26;111522;-50
2024/04/19 10:27:50;;;;;;;3.55;1.50;;;18.40;37.60;;;;;;5344238;26;110434;-51
2024/04/19 10:30:17;;;;;;;2.67;1.38;;;17.60;37.50;;;;;;5351721;26;110871;-50
2024/04/19 10:32:52;;;;;;;4.15;1.45;;;17.50;37.80;;;;;;5357516;26;111532;-50
2024/04/19 10:35:18;;;;;;;2.53;1.50;;;17.80;37.00;;;;;;5350947;26;111527;-50
2024/04/19 10:37:44;;;;;;;2.08;1.42;;;17.80;38.00;;;;;;5350527;26;110907;-50
2024/04/19 10:40:15;;;;;;;2.70;1.20;;;17.90;37.40;;;;;;5354078;26;110607;-50
2024/04/19 10:42:41;;;;;;;2.35;1.15;;;18.10;37.40;;;;;;5351969;26;112532;-51
2024/04/19 10:45:14;;;;;;;2.38;1.55;;;17.40;36.90;;;;;;5330544;26;110314;-51
2024/04/19 10:47:43;;;;;;;3.53;1.30;;;17.30;37.30;;;;;;5349687;26;111275;-50
2024/04/19 10:50:09;;;;;;;1.95;1.70;;;17.40;37.20;;;;;;5329857;26;110993;-50
2024/04/19 10:52:38;;;;;;;2.53;1.42;;;17.50;38.10;;;;;;5329414;26;111825;-50
2024/04/19 10:55:04;;;;;;;1.58;1.48;;;18.10;37.20;;;;;;5327820;26;110857;-50
2024/04/19 10:57:33;;;;;;;3.55;1.52;;;18.60;36.50;;;;;;5351829;26;110821;-50
2024/04/19 10:59:58;;;;;;;1.27;1.17;;;18.30;36.50;;;;;;5329676;26;116422;-52
2024/04/19 11:02:26;;;;;;;1.52;1.30;;;18.60;36.60;;;;;;5330712;26;111098;-52
2024/04/19 11:04:52;;;;;;;1.85;1.40;;;19.30;35.20;;;;;;5310142;26;111633;-50
2024/04/19 11:07:20;;;;;;;1.77;1.50;;;19.90;34.30;;;;;;5331820;26;110747;-50
2024/04/19 11:09:48;;;;;;;1.58;1.48;;;19.90;33.90;;;;;;5349893;26;111329;-50
2024/04/19 11:12:13;;;;;;;2.88;1.50;;;18.90;36.70;;;;;;5366479;26;111120;-50
2024/04/19 11:14:39;;;;;;;2.65;1.73;;;18.60;37.70;;;;;;5366159;26;111821;-50
2024/04/19 11:17:05;;;;;;;3.88;1.65;;;19.70;36.40;;;;;;5367660;26;111330;-50
2024/04/19 11:19:32;;;;;;;1.65;1.55;;;19.70;35.20;;;;;;5366319;26;110854;-52
2024/04/19 11:21:58;;;;;;;3.17;1.48;;;18.20;38.10;;;;;;5366530;26;112457;-50
2024/04/19 11:24:27;;;;;;;2.40;1.40;;;18.30;37.60;;;;;;5365936;26;111502;-51
2024/04/19 11:26:56;;;;;;;1.63;1.33;;;19.20;35.40;;;;;;5367202;26;110966;-50
2024/04/19 11:29:22;;;;;;;2.53;1.40;;;18.70;37.50;;;;;;5366627;26;110916;-54
2024/04/19 11:31:48;;;;;;;1.73;1.63;;;18.40;39.10;;;;;;5351205;26;110991;-51
2024/04/19 11:34:14;;;;;;;2.60;1.35;;;18.00;37.10;;;;;;5360179;26;111550;-55
2024/04/19 11:36:43;;;;;;;2.55;1.67;;;19.50;38.30;;;;;;5342775;26;110537;-51
2024/04/19 11:39:11;;;;;;;1.55;1.40;;;19.10;36.60;;;;;;5339927;26;110860;-51
2024/04/19 11:41:37;;;;;;;2.30;1.70;;;19.00;37.90;;;;;;5346570;26;113006;-51
2024/04/19 11:44:04;;;;;;;3.28;1.60;;;19.00;37.90;;;;;;5330675;26;111067;-51
2024/04/19 11:46:34;;;;;;;2.58;1.55;;;19.40;36.90;;;;;;5340916;26;111994;-51
2024/04/19 11:49:06;;;;;;;2.38;1.55;;;19.80;36.40;;;;;;5350453;26;112579;-53
2024/04/19 11:51:33;;;;;;;4.80;1.52;;;20.40;36.00;;;;;;5330214;26;111125;-51
2024/04/19 11:53:59;;;;;;;1.80;1.70;;;19.20;35.50;;;;;;5332284;26;111466;-51
2024/04/19 11:56:25;;;;;;;2.22;1.50;;;18.80;35.60;;;;;;5359000;26;112459;-51
2024/04/19 11:58:52;;;;;;;3.20;1.83;;;19.40;35.00;;;;;;5340555;26;110700;-51
2024/04/19 12:01:26;;;;;;;2.58;1.70;;;19.60;35.80;;;;;;5348164;26;112587;-51
2024/04/19 12:03:52;;;;;;;3.10;1.80;;;19.10;36.10;;;;;;5330223;26;110576;-51
2024/04/19 12:06:20;;;;;;;2.35;1.52;;;19.10;34.60;;;;;;5349099;26;110479;-51
2024/04/19 12:08:50;;;;;;;3.47;2.20;;;18.40;35.90;;;;;;5330963;26;110550;-51
2024/04/19 12:11:16;;;;;;;3.65;2.20;;;18.90;37.50;;;;;;5329845;26;111018;-52
2024/04/19 12:13:46;;;;;;;3.10;1.90;;;18.40;38.80;;;;;;5329874;26;110693;-52
2024/04/19 12:16:12;;;;;;;1.70;1.60;;;17.90;39.70;;;;;;5354640;26;110433;-53
2024/04/19 12:18:37;;;;;;;2.95;1.70;;;18.80;39.90;;;;;;5366495;26;110652;-50
2024/04/19 12:21:04;;;;;;;2.25;1.90;;;18.80;38.80;;;;;;5345391;26;111151;-51
2024/04/19 12:23:29;;;;;;;3.10;1.50;;;18.00;38.70;;;;;;5361102;26;110871;-51
2024/04/19 12:25:55;;;;;;;2.45;1.60;;;17.50;40.60;;;;;;5350037;26;110727;-52
2024/04/19 12:28:24;;;;;;;2.83;1.88;;;17.70;41.20;;;;;;5358153;26;110498;-51
2024/04/19 12:30:51;;;;;;;3.33;1.92;;;17.90;41.20;;;;;;5351596;26;111091;-53
2024/04/19 12:33:17;;;;;;;3.30;1.60;;;18.30;40.90;;;;;;5329832;26;110971;-50
2024/04/19 12:35:44;;;;;;;2.08;1.52;;;18.90;41.00;;;;;;5317314;26;110688;-51
2024/04/19 12:38:09;;;;;;;1.80;1.52;;;18.90;40.80;;;;;;5365624;26;110571;-51
2024/04/19 12:40:35;;;;;;;5.53;2.00;;;19.60;39.20;;;;;;5339454;26;111496;-51
2024/04/19 12:43:02;;;;;;;4.07;1.70;;;19.90;38.30;;;;;;5365137;26;110622;-50
2024/04/19 12:45:27;;;;;;;2.10;1.50;;;20.00;38.10;;;;;;5362003;26;111029;-52
2024/04/19 12:48:02;;;;;;;2.15;1.80;;;20.60;38.50;;;;;;5342485;26;110570;-51
2024/04/19 12:50:28;;;;;;;2.10;1.40;;;20.60;37.60;;;;;;5341253;26;111191;-50